createdAt,value
2019-05-14T00:02:02.881Z,1.00
2019-05-14T00:04:32.335Z,3.00
2019-05-14T00:07:02.080Z,2.20
2019-05-14T00:09:32.310Z,0.00
2019-05-14T00:12:02.802Z,3.40
2019-05-14T00:14:39.635Z,1.00
2019-05-14T00:17:04.327Z,2.20
2019-05-14T00:19:34.512Z,3.40
2019-05-14T00:22:04.210Z,1.00
2019-05-14T00:24:34.065Z,3.00
2019-05-14T00:27:03.838Z,1.00
2019-05-14T00:29:33.918Z,0.40
2019-05-14T00:32:03.975Z,0.80
2019-05-14T00:34:33.759Z,0.00
2019-05-14T00:37:03.390Z,1.00
2019-05-14T00:39:34.055Z,0.00
2019-05-14T00:42:03.971Z,0.80
2019-05-14T00:44:33.885Z,1.80
2019-05-14T00:47:03.703Z,0.20
2019-05-14T00:49:33.584Z,1.00
2019-05-14T00:52:03.322Z,0.60
2019-05-14T00:54:33.323Z,1.00
2019-05-14T00:57:03.282Z,1.00
2019-05-14T00:59:33.307Z,1.00
2019-05-14T01:02:03.333Z,1.00
2019-05-14T01:04:32.940Z,0.00
2019-05-14T01:07:03.087Z,0.20
2019-05-14T01:09:33.052Z,0.00
2019-05-14T01:12:02.943Z,1.00
2019-05-14T01:14:32.815Z,1.00
2019-05-14T01:17:02.657Z,3.20
2019-05-14T01:19:32.491Z,3.00
2019-05-14T01:22:02.780Z,1.40
2019-05-14T01:24:32.838Z,3.80
2019-05-14T01:27:02.984Z,4.40
2019-05-14T01:29:32.905Z,3.00
2019-05-14T01:32:02.890Z,1.00
2019-05-14T01:34:33.046Z,1.80
2019-05-14T01:37:03.048Z,0.00
2019-05-14T01:39:33.256Z,1.00
2019-05-14T01:42:03.130Z,0.00
2019-05-14T01:44:33.042Z,2.60
2019-05-14T01:47:03.091Z,0.40
2019-05-14T01:49:33.433Z,1.40
2019-05-14T01:52:03.426Z,1.00
2019-05-14T01:54:33.124Z,2.20
2019-05-14T01:57:03.066Z,3.00
2019-05-14T01:59:33.063Z,1.80
2019-05-14T02:02:02.836Z,2.20
2019-05-14T02:04:32.904Z,3.00
2019-05-14T02:07:02.734Z,3.00
2019-05-14T02:09:32.537Z,3.00
2019-05-14T02:12:02.505Z,3.00
2019-05-14T02:14:32.392Z,3.40
2019-05-14T02:17:02.200Z,3.00
2019-05-14T02:19:32.504Z,1.80
2019-05-14T02:22:02.317Z,2.80
2019-05-14T02:24:32.357Z,3.40
2019-05-14T02:27:02.300Z,1.00
2019-05-14T02:29:32.355Z,3.00
2019-05-14T02:32:02.365Z,4.40
2019-05-14T02:34:32.331Z,3.80
2019-05-14T02:37:02.027Z,8.00
2019-05-14T02:39:31.751Z,3.40
2019-05-14T02:42:01.700Z,4.00
2019-05-14T02:44:31.517Z,3.80
2019-05-14T02:47:02.259Z,4.00
2019-05-14T02:49:32.320Z,3.80
2019-05-14T02:52:01.978Z,3.80
2019-05-14T02:54:31.498Z,4.00
2019-05-14T02:57:01.237Z,3.00
2019-05-14T02:59:30.927Z,7.00
2019-05-14T03:02:00.702Z,3.60
2019-05-14T03:04:30.375Z,3.00
2019-05-14T03:07:00.241Z,5.20
2019-05-14T03:09:30.128Z,4.20
2019-05-14T03:12:00.767Z,6.00
2019-05-14T03:14:32.319Z,6.20
2019-05-14T03:17:02.077Z,4.00
2019-05-14T03:19:31.781Z,6.00
2019-05-14T03:22:01.301Z,3.80
2019-05-14T03:24:31.043Z,3.00
2019-05-14T03:27:01.086Z,3.00
2019-05-14T03:29:31.701Z,6.60
2019-05-14T03:32:03.939Z,3.00
2019-05-14T03:34:34.799Z,3.40
2019-05-14T03:37:04.487Z,3.40
2019-05-14T03:39:34.548Z,4.00
2019-05-14T03:42:04.096Z,5.20
2019-05-14T03:44:33.620Z,6.60
2019-05-14T03:47:05.429Z,6.40
2019-05-14T03:49:35.386Z,5.20
2019-05-14T03:52:05.151Z,3.60
2019-05-14T03:54:34.623Z,6.00
2019-05-14T03:57:04.157Z,3.00
2019-05-14T03:59:34.014Z,5.60
2019-05-14T04:02:03.566Z,3.40
2019-05-14T04:04:33.232Z,5.20
2019-05-14T04:07:03.654Z,5.20
2019-05-14T04:09:33.481Z,7.40
2019-05-14T04:12:04.572Z,4.00
2019-05-14T04:14:35.086Z,4.00
2019-05-14T04:17:13.782Z,4.00
2019-05-14T04:19:39.141Z,8.20
2019-05-14T04:22:10.134Z,10.80
2019-05-14T04:24:41.526Z,6.00
2019-05-14T04:27:12.999Z,9.00
2019-05-14T04:29:42.906Z,8.60
2019-05-14T04:32:14.335Z,9.60
2019-05-14T04:34:44.948Z,7.00
2019-05-14T04:37:14.705Z,9.40
2019-05-14T04:39:44.928Z,3.40
2019-05-14T04:42:14.571Z,12.60
2019-05-14T04:44:44.109Z,7.00
2019-05-14T04:47:27.993Z,4.80
2019-05-14T04:49:45.239Z,7.40
2019-05-14T04:52:16.131Z,6.80
2019-05-14T04:54:45.807Z,7.00
2019-05-14T04:57:15.692Z,8.20
2019-05-14T04:59:45.196Z,8.60
2019-05-14T05:02:19.912Z,11.20
2019-05-14T05:04:50.745Z,6.80
2019-05-14T05:07:22.312Z,11.40
2019-05-14T05:09:51.836Z,12.40
2019-05-14T05:12:21.695Z,10.00
2019-05-14T05:14:52.719Z,15.00
2019-05-14T05:17:37.726Z,6.20
2019-05-14T05:19:59.322Z,13.80
2019-05-14T05:22:28.673Z,10.40
2019-05-14T05:24:59.089Z,9.20
2019-05-14T05:27:29.307Z,11.60
2019-05-14T05:29:59.156Z,12.40
2019-05-14T05:32:29.330Z,8.60
2019-05-14T05:34:58.886Z,10.40
2019-05-14T05:37:29.405Z,16.00
2019-05-14T05:40:02.061Z,9.40
2019-05-14T05:42:31.684Z,13.00
2019-05-14T05:45:01.341Z,14.20
2019-05-14T05:47:31.243Z,13.60
2019-05-14T05:50:03.132Z,9.60
2019-05-14T05:52:35.365Z,15.60
2019-05-14T05:55:08.934Z,14.00
2019-05-14T05:57:39.493Z,12.40
2019-05-14T06:00:12.060Z,11.20
2019-05-14T06:02:43.811Z,13.40
2019-05-14T06:05:13.361Z,10.60
2019-05-14T06:07:43.371Z,14.40
2019-05-14T06:10:18.632Z,12.40
2019-05-14T06:12:49.057Z,12.40
2019-05-14T06:15:22.240Z,10.00
2019-05-14T06:17:52.434Z,10.80
2019-05-14T06:20:24.905Z,12.20
2019-05-14T06:22:54.429Z,10.80
2019-05-14T06:25:24.067Z,12.20
2019-05-14T06:27:53.739Z,12.60
2019-05-14T06:33:21.632Z,14.20
2019-05-14T06:35:51.812Z,18.80
2019-05-14T06:40:43.897Z,19.00
2019-05-14T06:43:15.149Z,20.80
2019-05-14T06:45:45.168Z,18.20
2019-05-14T06:48:28.150Z,11.60
2019-05-14T06:50:50.449Z,14.00
2019-05-14T06:53:19.586Z,14.40
2019-05-14T06:55:50.009Z,10.40
2019-05-14T06:58:20.525Z,11.60
2019-05-14T07:00:52.388Z,14.20
2019-05-14T07:03:22.198Z,14.20
2019-05-14T07:05:54.142Z,17.20
2019-05-14T07:08:25.339Z,9.00
2019-05-14T07:10:55.448Z,12.40
2019-05-14T07:13:29.200Z,12.40
2019-05-14T07:15:58.866Z,15.40
2019-05-14T07:18:45.143Z,13.40
2019-05-14T07:21:00.381Z,8.60
2019-05-14T07:23:31.368Z,6.40
2019-05-14T07:26:01.602Z,9.40
2019-05-14T07:28:34.670Z,13.20
2019-05-14T07:31:05.126Z,14.20
2019-05-14T07:33:34.657Z,14.80
2019-05-14T07:36:04.048Z,14.20
2019-05-14T07:38:33.547Z,11.60
2019-05-14T07:41:02.936Z,9.60
2019-05-14T07:43:34.354Z,12.60
2019-05-14T07:46:08.382Z,13.40
2019-05-14T07:48:39.350Z,10.40
2019-05-14T07:51:09.124Z,12.00
2019-05-14T07:53:42.377Z,7.40
2019-05-14T07:56:10.343Z,7.80
2019-05-14T07:58:40.302Z,7.00
2019-05-14T08:01:09.789Z,6.40
2019-05-14T08:03:39.849Z,8.20
2019-05-14T08:06:09.333Z,7.00
2019-05-14T08:08:39.547Z,9.40
2019-05-14T08:11:09.153Z,3.60
2019-05-14T08:13:39.461Z,4.00
2019-05-14T08:16:12.000Z,5.60
2019-05-14T08:18:42.189Z,5.20
2019-05-14T08:21:11.708Z,6.80
2019-05-14T08:23:44.761Z,6.20
2019-05-14T08:26:14.288Z,3.80
2019-05-14T08:28:48.658Z,6.40
2019-05-14T08:31:19.335Z,7.40
2019-05-14T08:33:49.315Z,13.20
2019-05-14T08:36:18.896Z,6.60
2019-05-14T08:38:50.166Z,9.40
2019-05-14T08:41:20.653Z,6.20
2019-05-14T08:43:50.207Z,8.20
2019-05-14T08:46:19.750Z,6.00
2019-05-14T08:48:49.834Z,10.00
2019-05-14T08:51:19.508Z,6.40
2019-05-14T08:53:50.248Z,6.40
2019-05-14T08:56:20.137Z,6.60
2019-05-14T08:58:49.729Z,8.40
2019-05-14T09:01:20.712Z,10.20
2019-05-14T09:03:53.822Z,9.20
2019-05-14T09:06:24.139Z,6.00
2019-05-14T09:08:59.549Z,9.20
2019-05-14T09:11:35.739Z,7.00
2019-05-14T09:13:59.918Z,11.60
2019-05-14T09:16:46.026Z,6.60
2019-05-14T09:19:02.471Z,8.20
2019-05-14T09:21:31.791Z,9.40
2019-05-14T09:24:01.246Z,9.40
2019-05-14T09:26:30.712Z,6.80
2019-05-14T09:29:00.226Z,8.60
2019-05-14T09:31:30.188Z,10.00
2019-05-14T09:33:59.891Z,10.80
2019-05-14T09:36:29.654Z,10.00
2019-05-14T09:38:59.072Z,9.00
2019-05-14T09:41:30.936Z,14.60
2019-05-14T09:44:00.403Z,9.60
2019-05-14T09:46:30.194Z,9.20
2019-05-14T09:49:02.200Z,8.80
2019-05-14T09:51:32.322Z,10.00
2019-05-14T09:54:02.243Z,8.60
2019-05-14T09:56:31.917Z,9.00
2019-05-14T09:59:01.993Z,2.60
2019-05-14T10:01:32.616Z,6.80
2019-05-14T10:04:02.031Z,10.60
2019-05-14T10:06:34.310Z,4.80
2019-05-14T10:09:04.882Z,9.00
2019-05-14T10:11:34.356Z,7.00
2019-05-14T10:14:03.856Z,9.00
2019-05-14T10:16:33.406Z,7.60
2019-05-14T10:19:03.024Z,9.80
2019-05-14T10:21:32.643Z,7.40
2019-05-14T10:24:03.623Z,10.40
2019-05-14T10:26:39.342Z,9.60
2019-05-14T10:29:08.759Z,10.00
2019-05-14T10:31:39.774Z,9.00
2019-05-14T10:34:10.061Z,8.20
2019-05-14T10:36:39.764Z,7.00
2019-05-14T10:39:10.101Z,8.40
2019-05-14T10:41:39.615Z,9.00
2019-05-14T10:44:11.168Z,12.00
2019-05-14T10:46:40.530Z,5.80
2019-05-14T10:49:19.951Z,6.80
2019-05-14T10:51:41.004Z,8.20
2019-05-14T10:54:21.139Z,8.20
2019-05-14T10:56:41.491Z,7.00
2019-05-14T10:59:11.501Z,7.80
2019-05-14T11:01:40.945Z,8.20
2019-05-14T11:04:10.501Z,9.00
2019-05-14T11:06:40.291Z,8.60
2019-05-14T11:09:11.368Z,8.60
2019-05-14T11:11:40.763Z,7.40
2019-05-14T11:14:14.334Z,6.40
2019-05-14T11:16:44.211Z,10.00
2019-05-14T11:19:13.818Z,8.60
2019-05-14T11:21:43.191Z,7.80
2019-05-14T11:24:12.886Z,6.00
2019-05-14T11:26:42.379Z,6.00
2019-05-14T11:29:14.211Z,8.20
2019-05-14T11:31:43.731Z,7.00
2019-05-14T11:34:13.287Z,6.80
2019-05-14T11:36:42.669Z,8.60
2019-05-14T11:39:12.352Z,5.80
2019-05-14T11:41:42.213Z,8.60
2019-05-14T11:44:13.574Z,7.80
2019-05-14T11:46:56.310Z,4.00
2019-05-14T11:49:14.575Z,6.60
2019-05-14T11:52:01.032Z,7.00
2019-05-14T11:54:15.238Z,7.00
2019-05-14T11:56:44.845Z,10.40
2019-05-14T11:59:14.359Z,6.20
2019-05-14T12:01:43.814Z,9.00
2019-05-14T12:04:13.437Z,8.80
2019-05-14T12:06:42.790Z,7.00
2019-05-14T12:09:12.388Z,7.00
2019-05-14T12:11:42.192Z,7.00
2019-05-14T12:14:13.193Z,9.00
2019-05-14T12:16:42.967Z,5.20
2019-05-14T12:19:13.364Z,7.80
2019-05-14T12:21:58.679Z,7.80
2019-05-14T12:24:14.378Z,6.20
2019-05-14T12:26:43.869Z,6.60
2019-05-14T12:29:15.157Z,6.80
2019-05-14T12:31:45.361Z,3.00
2019-05-14T12:34:21.715Z,8.60
2019-05-14T12:36:52.663Z,7.00
2019-05-14T12:39:22.326Z,6.60
2019-05-14T12:41:51.738Z,6.40
2019-05-14T12:44:21.182Z,6.20
2019-05-14T12:46:51.036Z,6.40
2019-05-14T12:49:20.957Z,6.60
2019-05-14T12:51:50.508Z,6.20
2019-05-14T12:54:20.115Z,9.80
2019-05-14T12:56:49.725Z,8.80
2019-05-14T12:59:20.976Z,7.00
2019-05-14T13:01:50.809Z,10.00
2019-05-14T13:04:20.418Z,10.00
2019-05-14T13:06:51.143Z,9.20
2019-05-14T13:09:32.046Z,9.00
2019-05-14T13:12:29.544Z,9.80
2019-05-14T13:14:58.007Z,7.00
2019-05-14T13:17:30.271Z,6.40
2019-05-14T13:20:01.105Z,6.60
2019-05-14T13:22:42.470Z,10.60
2019-05-14T13:25:02.271Z,10.00
2019-05-14T13:27:33.414Z,7.80
2019-05-14T13:30:03.854Z,9.60
2019-05-14T13:32:35.874Z,8.20
2019-05-14T13:35:09.555Z,5.60
2019-05-14T13:37:40.647Z,7.80
2019-05-14T13:40:13.679Z,11.80
2019-05-14T13:42:44.523Z,11.20
2019-05-14T13:45:13.130Z,6.80
2019-05-14T13:47:43.147Z,6.40
2019-05-14T13:50:12.629Z,10.00
2019-05-14T13:53:02.011Z,7.00
2019-05-14T13:55:19.711Z,7.00
2019-05-14T13:57:49.141Z,8.80
2019-05-14T14:00:41.196Z,9.00
2019-05-14T14:03:19.938Z,10.00
2019-05-14T14:05:54.584Z,6.60
2019-05-14T14:08:23.520Z,8.40
2019-05-14T14:11:02.049Z,7.00
2019-05-14T14:13:28.896Z,5.60
2019-05-14T14:15:59.023Z,10.40
2019-05-14T14:18:31.345Z,9.00
2019-05-14T14:21:01.128Z,6.80
2019-05-14T14:23:31.367Z,8.20
2019-05-14T14:26:05.389Z,7.80
2019-05-14T14:28:39.695Z,6.00
2019-05-14T14:31:10.994Z,6.00
2019-05-14T14:33:39.708Z,4.80
2019-05-14T14:36:09.739Z,5.20
2019-05-14T14:38:40.150Z,6.40
2019-05-14T14:41:10.495Z,9.20
2019-05-14T14:43:43.575Z,6.60
2019-05-14T14:46:14.210Z,6.20
2019-05-14T14:48:42.836Z,6.60
2019-05-14T14:51:12.324Z,5.80
2019-05-14T14:53:53.450Z,7.60
2019-05-14T14:56:13.725Z,4.00
2019-05-14T14:58:44.280Z,7.40
2019-05-14T15:01:19.037Z,6.00
2019-05-14T15:03:49.589Z,4.00
2019-05-14T15:06:18.621Z,6.00
2019-05-14T15:08:49.731Z,4.40
2019-05-14T15:11:19.813Z,6.40
2019-05-14T15:13:51.095Z,9.00
2019-05-14T15:16:20.603Z,6.00
2019-05-14T15:18:50.768Z,6.00
2019-05-14T15:21:23.117Z,9.40
2019-05-14T15:24:05.615Z,4.40
2019-05-14T15:26:28.867Z,6.40
2019-05-14T15:28:59.210Z,5.20
2019-05-14T15:31:33.981Z,8.60
2019-05-14T15:34:03.357Z,5.20
2019-05-14T15:36:33.157Z,5.60
2019-05-14T15:39:02.998Z,6.20
2019-05-14T15:41:32.714Z,8.00
2019-05-14T15:44:02.434Z,6.00
2019-05-14T15:46:33.010Z,6.60
2019-05-14T15:49:08.788Z,3.00
2019-05-14T15:51:42.065Z,6.60
2019-05-14T15:54:34.520Z,4.00
2019-05-14T15:56:43.241Z,4.00
2019-05-14T15:59:14.420Z,6.20
2019-05-14T16:01:43.809Z,6.00
2019-05-14T16:04:14.174Z,6.40
2019-05-14T16:06:48.876Z,3.00
2019-05-14T16:09:19.459Z,5.00
2019-05-14T16:11:49.050Z,7.00
2019-05-14T16:14:19.210Z,4.80
2019-05-14T16:16:48.966Z,4.00
2019-05-14T16:19:19.045Z,6.00
2019-05-14T16:21:48.980Z,6.00
2019-05-14T16:24:21.820Z,6.80
2019-05-14T16:26:50.036Z,1.80
2019-05-14T16:29:36.948Z,6.60
2019-05-14T16:31:58.223Z,4.00
2019-05-14T16:34:28.698Z,6.00
2019-05-14T16:37:02.296Z,4.00
2019-05-14T16:39:32.259Z,4.00
2019-05-14T16:42:01.738Z,5.20
2019-05-14T16:44:35.081Z,6.60
2019-05-14T16:47:05.416Z,3.60
2019-05-14T16:49:35.155Z,4.40
2019-05-14T16:52:04.662Z,9.80
2019-05-14T16:54:34.094Z,6.00
2019-05-14T16:57:03.933Z,4.40
2019-05-14T16:59:33.624Z,5.60
2019-05-14T17:02:09.372Z,6.00
2019-05-14T17:04:42.250Z,6.20
2019-05-14T17:07:14.099Z,4.80
2019-05-14T17:09:43.503Z,7.00
2019-05-14T17:12:12.926Z,5.60
2019-05-14T17:14:42.644Z,4.00
2019-05-14T17:17:11.404Z,3.80
2019-05-14T17:19:41.928Z,5.20
2019-05-14T17:22:24.389Z,6.20
2019-05-14T17:24:42.741Z,7.00
2019-05-14T17:27:13.625Z,4.00
2019-05-14T17:29:48.386Z,3.80
2019-05-14T17:32:20.485Z,4.00
2019-05-14T17:34:50.675Z,4.00
2019-05-14T17:37:23.171Z,3.00
2019-05-14T17:39:54.096Z,3.40
2019-05-14T17:42:28.353Z,3.80
2019-05-14T17:44:58.931Z,6.00
2019-05-14T17:47:29.173Z,4.00
2019-05-14T17:49:59.057Z,3.00
2019-05-14T17:52:31.097Z,3.80
2019-05-14T17:55:01.053Z,4.40
2019-05-14T17:57:35.042Z,1.40
2019-05-14T18:00:03.541Z,5.20
2019-05-14T18:02:33.354Z,3.00
2019-05-14T18:05:05.142Z,3.40
2019-05-14T18:07:34.724Z,4.40
2019-05-14T18:10:04.586Z,3.00
2019-05-14T18:12:35.776Z,6.00
2019-05-14T18:15:05.653Z,4.00
2019-05-14T18:17:39.317Z,6.00
2019-05-14T18:20:11.006Z,5.20
2019-05-14T18:22:42.718Z,4.00
2019-05-14T18:25:14.597Z,4.00
2019-05-14T18:27:49.703Z,3.00
2019-05-14T18:30:18.330Z,3.00
2019-05-14T18:32:48.706Z,4.80
2019-05-14T18:35:18.930Z,4.00
2019-05-14T18:37:49.095Z,4.00
2019-05-14T18:40:18.812Z,3.20
2019-05-14T18:42:49.289Z,4.80
2019-05-14T18:45:21.477Z,4.40
2019-05-14T18:47:52.202Z,6.00
2019-05-14T18:50:22.712Z,4.80
2019-05-14T18:52:53.533Z,4.00
2019-05-14T18:55:23.527Z,6.00
2019-05-14T18:57:59.167Z,5.60
2019-05-14T19:00:29.383Z,0.40
2019-05-14T19:03:02.733Z,3.40
2019-05-14T19:05:33.153Z,3.40
2019-05-14T19:08:03.000Z,3.40
2019-05-14T19:10:32.711Z,4.00
2019-05-14T19:13:02.775Z,4.00
2019-05-14T19:15:39.182Z,6.80
2019-05-14T19:18:10.346Z,3.00
2019-05-14T19:20:40.173Z,5.20
2019-05-14T19:23:09.963Z,4.00
2019-05-14T19:25:39.832Z,5.60
2019-05-14T19:28:09.757Z,4.80
2019-05-14T19:30:39.585Z,3.00
2019-05-14T19:33:09.280Z,3.80
2019-05-14T19:35:39.599Z,4.00
2019-05-14T19:38:10.271Z,3.80
2019-05-14T19:40:41.301Z,5.60
2019-05-14T19:43:12.959Z,4.40
2019-05-14T19:45:42.778Z,4.00
2019-05-14T19:48:13.244Z,8.20
2019-05-14T19:50:52.733Z,3.80
2019-05-14T19:53:24.085Z,6.00
2019-05-14T19:55:53.898Z,4.00
2019-05-14T19:58:25.918Z,3.60
2019-05-14T20:00:59.160Z,0.00
2019-05-14T20:03:32.083Z,4.00
2019-05-14T20:06:02.518Z,4.00
2019-05-14T20:08:32.655Z,3.20
2019-05-14T20:11:02.546Z,0.80
2019-05-14T20:13:33.997Z,3.80
2019-05-14T20:16:08.639Z,3.00
2019-05-14T20:18:39.142Z,4.40
2019-05-14T20:21:11.922Z,3.80
2019-05-14T20:23:42.473Z,3.80
2019-05-14T20:26:12.850Z,6.80
2019-05-14T20:28:44.981Z,4.00
2019-05-14T20:31:15.145Z,6.00
2019-05-14T20:33:48.553Z,4.80
2019-05-14T20:36:21.797Z,4.20
2019-05-14T20:38:52.265Z,4.40
2019-05-14T20:41:21.996Z,4.40
2019-05-14T20:43:52.647Z,6.00
2019-05-14T20:46:22.420Z,6.00
2019-05-14T20:48:52.745Z,4.00
2019-05-14T20:51:23.353Z,4.00
2019-05-14T20:53:58.091Z,3.00
2019-05-14T20:56:28.401Z,4.00
2019-05-14T20:58:58.980Z,8.60
2019-05-14T21:01:29.712Z,6.20
2019-05-14T21:03:59.449Z,9.00
2019-05-14T21:06:29.221Z,15.00
2019-05-14T21:09:00.493Z,13.20
2019-05-14T21:11:31.174Z,13.40
2019-05-14T21:14:00.705Z,18.40
2019-05-14T21:16:32.704Z,18.00
2019-05-14T21:19:02.323Z,13.60
2019-05-14T21:21:49.271Z,20.60
2019-05-14T21:24:21.762Z,7.80
2019-05-14T21:26:51.932Z,7.60
2019-05-14T21:29:22.157Z,8.00
2019-05-14T21:31:52.103Z,7.40
2019-05-14T21:34:22.073Z,8.60
2019-05-14T21:36:55.093Z,8.60
2019-05-14T21:39:24.795Z,9.20
2019-05-14T21:41:55.740Z,11.40
2019-05-14T21:44:25.733Z,13.00
2019-05-14T21:46:55.511Z,11.60
2019-05-14T21:49:25.528Z,22.60
2019-05-14T21:51:58.427Z,25.60
2019-05-14T21:54:30.951Z,30.40
2019-05-14T21:56:59.740Z,30.60
2019-05-14T21:59:29.285Z,18.60
2019-05-14T22:01:59.220Z,21.40
2019-05-14T22:04:29.452Z,22.00
2019-05-14T22:06:59.586Z,14.40
2019-05-14T22:09:30.682Z,15.40
2019-05-14T22:12:00.343Z,12.80
2019-05-14T22:14:30.107Z,8.60
2019-05-14T22:17:00.221Z,11.20
2019-05-14T22:19:30.145Z,6.00
2019-05-14T22:22:00.318Z,5.40
2019-05-14T22:24:31.649Z,5.00
2019-05-14T22:27:01.144Z,5.60
2019-05-14T22:29:30.894Z,4.00
2019-05-14T22:32:01.432Z,5.20
2019-05-14T22:34:30.985Z,4.00
2019-05-14T22:37:01.056Z,4.00
2019-05-14T22:39:33.536Z,4.80
2019-05-14T22:42:03.121Z,3.80
2019-05-14T22:44:33.465Z,6.00
2019-05-14T22:47:04.201Z,4.40
2019-05-14T22:49:34.416Z,4.80
2019-05-14T22:52:04.232Z,3.80
2019-05-14T22:54:38.457Z,6.00
2019-05-14T22:57:07.375Z,7.00
2019-05-14T22:59:39.069Z,4.00
2019-05-14T23:02:11.279Z,4.00
2019-05-14T23:04:40.051Z,6.00
2019-05-14T23:07:09.600Z,3.60
2019-05-14T23:09:39.119Z,3.80
2019-05-14T23:12:12.014Z,7.40
2019-05-14T23:14:39.993Z,4.60
2019-05-14T23:17:10.375Z,1.40
2019-05-14T23:19:40.394Z,6.00
2019-05-14T23:22:11.845Z,4.00
2019-05-14T23:24:42.638Z,3.40
2019-05-14T23:27:12.608Z,3.00
2019-05-14T23:29:42.036Z,3.40
2019-05-14T23:32:13.503Z,3.00
2019-05-14T23:34:43.164Z,2.20
2019-05-14T23:37:13.244Z,3.00
2019-05-14T23:39:43.135Z,3.00
2019-05-14T23:42:13.085Z,1.80
2019-05-14T23:44:43.062Z,1.00
2019-05-14T23:47:14.794Z,3.00
2019-05-14T23:49:48.366Z,6.00
2019-05-14T23:52:19.518Z,3.00
2019-05-14T23:54:49.323Z,3.00
2019-05-14T23:57:18.875Z,4.00
2019-05-14T23:59:48.785Z,2.60
